createdAt,value
2023-01-29T00:00:18.966Z,62.88
2023-01-29T00:00:53.848Z,62.79
2023-01-29T00:01:26.083Z,63.17
2023-01-29T00:01:58.349Z,63.08
2023-01-29T00:02:33.342Z,62.76
2023-01-29T00:03:05.724Z,63.27
2023-01-29T00:03:37.885Z,63.15
2023-01-29T00:04:12.642Z,62.92
2023-01-29T00:04:44.843Z,62.79
2023-01-29T00:05:27.559Z,63.06
2023-01-29T00:06:03.758Z,62.86
2023-01-29T00:06:36.138Z,63.03
2023-01-29T00:07:11.412Z,63.09
2023-01-29T00:07:43.845Z,63.35
2023-01-29T00:08:16.014Z,63.00
2023-01-29T00:08:50.902Z,63.19
2023-01-29T00:09:23.039Z,63.28
2023-01-29T00:09:57.763Z,63.10
2023-01-29T00:10:32.450Z,63.48
2023-01-29T00:11:06.716Z,63.51
2023-01-29T00:11:38.956Z,63.33
2023-01-29T00:12:13.984Z,63.03
2023-01-29T00:12:46.076Z,63.31
2023-01-29T00:13:18.306Z,63.09
2023-01-29T00:13:53.006Z,63.51
2023-01-29T00:14:26.486Z,63.10
2023-01-29T00:15:01.288Z,63.33
2023-01-29T00:15:33.443Z,63.55
2023-01-29T00:16:06.353Z,63.51
2023-01-29T00:16:41.086Z,63.07
2023-01-29T00:17:13.410Z,63.24
2023-01-29T00:17:45.647Z,63.48
2023-01-29T00:18:20.320Z,63.67
2023-01-29T00:18:52.451Z,63.42
2023-01-29T00:19:24.537Z,63.66
2023-01-29T00:19:59.212Z,63.27
2023-01-29T00:20:31.660Z,63.68
2023-01-29T00:21:03.772Z,63.47
2023-01-29T00:21:38.474Z,63.49
2023-01-29T00:22:10.804Z,63.54
2023-01-29T00:22:43.273Z,63.47
2023-01-29T00:23:15.718Z,63.44
2023-01-29T00:23:50.952Z,63.38
2023-01-29T00:24:23.339Z,63.59
2023-01-29T00:24:58.378Z,63.82
2023-01-29T00:25:34.280Z,63.43
2023-01-29T00:26:06.429Z,63.60
2023-01-29T00:26:39.375Z,63.75
2023-01-29T00:27:14.121Z,63.42
2023-01-29T00:27:47.352Z,63.54
2023-01-29T00:28:19.556Z,63.49
2023-01-29T00:28:54.250Z,63.68
2023-01-29T00:29:26.566Z,63.85
2023-01-29T00:30:09.373Z,63.80
2023-01-29T00:30:44.353Z,64.05
2023-01-29T00:31:18.634Z,63.73
2023-01-29T00:31:50.896Z,63.87
2023-01-29T00:32:25.722Z,63.53
2023-01-29T00:32:58.166Z,63.61
2023-01-29T00:33:31.566Z,63.91
2023-01-29T00:34:06.377Z,63.63
2023-01-29T00:34:38.476Z,64.07
2023-01-29T00:35:11.168Z,63.83
2023-01-29T00:35:45.830Z,63.86
2023-01-29T00:36:20.837Z,63.86
2023-01-29T00:37:05.060Z,64.02
2023-01-29T00:37:37.379Z,63.98
2023-01-29T00:38:09.552Z,63.94
2023-01-29T00:38:44.353Z,64.09
2023-01-29T00:39:16.455Z,64.14
2023-01-29T00:39:48.567Z,64.10
2023-01-29T00:40:26.665Z,64.03
2023-01-29T00:41:13.852Z,63.83
2023-01-29T00:42:00.984Z,64.25
2023-01-29T00:42:48.204Z,64.30
2023-01-29T00:43:37.845Z,63.96
2023-01-29T00:44:25.119Z,64.39
2023-01-29T00:45:00.153Z,64.18
2023-01-29T00:45:36.784Z,64.25
2023-01-29T00:46:09.067Z,64.41
2023-01-29T00:46:41.371Z,64.14
2023-01-29T00:47:28.356Z,64.29
2023-01-29T00:48:03.401Z,64.39
2023-01-29T00:48:35.983Z,63.99
2023-01-29T00:49:09.252Z,64.27
2023-01-29T00:49:43.912Z,64.25
2023-01-29T00:50:17.078Z,63.96
2023-01-29T00:50:49.475Z,64.17
2023-01-29T00:51:24.157Z,64.37
2023-01-29T00:52:11.153Z,64.37
2023-01-29T00:52:46.039Z,64.51
2023-01-29T00:53:18.154Z,64.29
2023-01-29T00:53:50.320Z,64.29
2023-01-29T00:54:25.079Z,64.08
2023-01-29T00:54:59.256Z,64.33
2023-01-29T00:55:36.645Z,64.29
2023-01-29T00:56:09.960Z,64.30
2023-01-29T00:56:42.082Z,64.08
2023-01-29T00:57:16.773Z,64.04
2023-01-29T00:57:49.416Z,64.49
2023-01-29T00:58:34.272Z,64.29
2023-01-29T00:59:06.511Z,64.41
2023-01-29T00:59:38.691Z,64.33
2023-01-29T01:00:16.486Z,64.54
2023-01-29T01:00:49.305Z,64.42
2023-01-29T01:01:38.647Z,64.58
2023-01-29T01:02:25.911Z,64.31
2023-01-29T01:03:06.706Z,64.37
2023-01-29T01:03:42.210Z,64.55
2023-01-29T01:04:14.759Z,64.44
2023-01-29T01:04:47.115Z,64.39
2023-01-29T01:05:22.270Z,64.40
2023-01-29T01:06:03.911Z,64.47
2023-01-29T04:10:30.338Z,69.74
2023-01-29T04:11:05.189Z,70.24
2023-01-29T04:11:43.125Z,69.40
2023-01-29T04:12:21.734Z,69.67
2023-01-29T04:12:58.964Z,69.74
2023-01-29T04:13:33.847Z,69.40
2023-01-29T04:14:10.185Z,69.69
2023-01-29T04:14:42.508Z,69.81
2023-01-29T04:15:17.255Z,69.67
2023-01-29T04:15:58.871Z,69.96
2023-01-29T04:16:56.021Z,69.77
2023-01-29T04:17:42.847Z,70.06
2023-01-29T04:18:20.643Z,69.90
2023-01-29T04:19:13.282Z,70.25
2023-01-29T04:19:50.749Z,70.35
2023-01-29T04:20:23.913Z,70.39
2023-01-29T04:20:56.657Z,70.14
2023-01-29T04:21:32.996Z,70.31
2023-01-29T04:22:10.076Z,70.32
2023-01-29T04:22:48.882Z,69.88
2023-01-29T04:23:23.764Z,70.05
2023-01-29T04:23:56.122Z,70.03
2023-01-29T04:24:31.587Z,69.84
2023-01-29T04:25:08.679Z,69.78
2023-01-29T04:25:48.126Z,69.69
2023-01-29T04:26:48.115Z,69.55
2023-01-29T04:27:30.201Z,70.06
2023-01-29T04:28:10.764Z,69.77
2023-01-29T04:28:58.858Z,69.69
2023-01-29T04:29:45.947Z,69.79
2023-01-29T04:30:33.585Z,69.50
2023-01-29T04:31:11.842Z,69.80
2023-01-29T04:31:54.158Z,69.68
2023-01-29T04:32:34.822Z,69.90
2023-01-29T04:33:19.101Z,69.58
2023-01-29T04:33:59.773Z,69.68
2023-01-29T04:34:39.864Z,69.64
2023-01-29T04:35:25.716Z,69.54
2023-01-29T04:36:17.760Z,69.25
2023-01-29T04:37:02.717Z,69.50
2023-01-29T04:37:40.344Z,69.71
2023-01-29T04:38:25.991Z,69.42
2023-01-29T04:39:07.970Z,69.20
2023-01-29T04:39:49.339Z,69.58
2023-01-29T04:40:27.754Z,69.54
2023-01-29T04:41:08.991Z,69.23
2023-01-29T04:41:50.273Z,68.92
2023-01-29T04:42:33.283Z,69.06
2023-01-29T04:43:10.101Z,68.92
2023-01-29T04:43:48.828Z,69.06
2023-01-29T04:44:28.667Z,68.71
2023-01-29T04:45:07.454Z,68.89
2023-01-29T04:45:52.175Z,68.66
2023-01-29T04:46:30.199Z,69.10
2023-01-29T04:47:12.083Z,68.58
2023-01-29T04:47:52.487Z,68.68
2023-01-29T04:48:27.679Z,68.86
2023-01-29T04:49:13.648Z,69.12
2023-01-29T04:49:49.493Z,69.06
2023-01-29T04:50:28.378Z,68.98
2023-01-29T04:51:11.753Z,68.82
2023-01-29T04:51:49.881Z,68.78
2023-01-29T04:52:29.522Z,68.57
2023-01-29T04:53:12.150Z,68.89
2023-01-29T04:53:50.478Z,68.98
2023-01-29T04:54:32.738Z,68.96
2023-01-29T04:55:12.244Z,68.89
2023-01-29T04:55:47.709Z,68.71
2023-01-29T04:56:30.330Z,68.57
2023-01-29T04:57:12.487Z,68.85
2023-01-29T04:57:53.525Z,68.62
2023-01-29T04:58:31.556Z,68.63
2023-01-29T04:59:10.473Z,68.53
2023-01-29T04:59:48.424Z,68.37
2023-01-29T05:00:28.849Z,68.70
2023-01-29T05:01:04.691Z,68.49
2023-01-29T05:01:39.097Z,68.89
2023-01-29T05:02:15.495Z,68.39
2023-01-29T05:02:49.101Z,68.44
2023-01-29T05:03:26.032Z,68.51
2023-01-29T05:04:03.656Z,68.79
2023-01-29T05:04:38.501Z,68.36
2023-01-29T05:05:13.917Z,68.27
2023-01-29T05:05:51.279Z,68.56
2023-01-29T05:06:25.607Z,68.21
2023-01-29T05:06:58.208Z,68.34
2023-01-29T05:07:34.063Z,68.52
2023-01-29T05:08:07.326Z,68.41
2023-01-29T05:08:41.385Z,67.95
2023-01-29T05:09:18.560Z,68.09
2023-01-29T05:09:51.771Z,68.39
2023-01-29T05:10:25.533Z,68.17
2023-01-29T05:11:01.931Z,68.39
2023-01-29T05:11:37.477Z,68.44
2023-01-29T05:12:11.849Z,68.57
2023-01-29T05:12:51.207Z,68.72
2023-01-29T05:13:25.839Z,68.54
2023-01-29T05:13:59.028Z,68.36
2023-01-29T05:14:37.492Z,68.68
2023-01-29T05:15:14.497Z,68.70
2023-01-29T05:15:50.732Z,68.83
2023-01-29T05:16:29.315Z,68.80
2023-01-29T05:17:05.875Z,68.63
2023-01-29T05:17:38.499Z,68.92
2023-01-29T05:18:13.441Z,68.92
2023-01-29T05:18:46.165Z,68.79
2023-01-29T05:19:18.418Z,69.01
2023-01-29T05:19:53.226Z,68.99
2023-01-29T05:20:25.407Z,68.52
2023-01-29T05:21:01.665Z,68.60
2023-01-29T05:21:36.408Z,69.07
2023-01-29T05:22:11.419Z,68.79
2023-01-29T05:22:45.842Z,68.73
2023-01-29T05:23:21.394Z,68.82
2023-01-29T05:24:12.637Z,69.14
2023-01-29T05:24:44.900Z,69.13
2023-01-29T05:25:25.977Z,69.41
2023-01-29T05:25:58.121Z,69.74
2023-01-29T05:26:45.385Z,69.74
2023-01-29T05:27:37.747Z,69.51
2023-01-29T05:28:16.454Z,69.85
2023-01-29T05:28:48.612Z,70.20
2023-01-29T05:29:23.719Z,70.10
2023-01-29T05:29:56.694Z,69.76
2023-01-29T05:30:28.808Z,69.75
2023-01-29T05:31:03.768Z,69.85
2023-01-29T05:31:35.960Z,70.18
2023-01-29T05:32:09.288Z,70.16
2023-01-29T05:32:41.372Z,69.92
2023-01-29T05:33:18.702Z,70.35
2023-01-29T05:33:50.851Z,70.48
2023-01-29T05:34:23.940Z,70.20
2023-01-29T05:34:58.704Z,70.15
2023-01-29T05:35:31.624Z,70.24
2023-01-29T05:36:07.081Z,70.34
2023-01-29T05:36:39.215Z,69.87
2023-01-29T05:37:11.684Z,69.99
2023-01-29T05:37:46.338Z,70.03
2023-01-29T05:38:19.732Z,70.25
2023-01-29T05:38:51.847Z,69.71
2023-01-29T05:39:26.928Z,70.10
2023-01-29T05:39:59.098Z,69.84
2023-01-29T05:40:31.250Z,69.86
2023-01-29T05:41:05.975Z,69.79
2023-01-29T05:41:38.169Z,69.84
2023-01-29T05:42:10.305Z,69.65
2023-01-29T05:42:47.644Z,69.87
2023-01-29T05:43:21.807Z,69.98
2023-01-29T05:43:54.024Z,69.83
2023-01-29T05:44:28.961Z,69.72
2023-01-29T05:45:01.097Z,69.62
2023-01-29T05:45:33.438Z,70.02
2023-01-29T05:46:08.359Z,69.81
2023-01-29T05:46:40.560Z,70.04
2023-01-29T05:47:12.695Z,69.84
2023-01-29T05:47:48.038Z,69.75
2023-01-29T05:48:20.547Z,70.03
2023-01-29T05:48:52.865Z,70.13
2023-01-29T05:49:27.632Z,70.11
2023-01-29T05:49:59.814Z,69.88
2023-01-29T05:50:35.160Z,69.71
2023-01-29T05:51:07.295Z,69.65
2023-01-29T05:51:39.617Z,69.98
2023-01-29T05:52:14.310Z,70.05
2023-01-29T05:52:46.460Z,69.83
2023-01-29T05:53:18.708Z,70.08
2023-01-29T05:53:53.436Z,69.73
2023-01-29T05:54:25.547Z,69.72
2023-01-29T05:55:00.247Z,69.77
2023-01-29T05:55:32.409Z,69.86
2023-01-29T05:56:05.554Z,69.59
2023-01-29T05:56:40.340Z,69.34
2023-01-29T05:57:12.447Z,69.21
2023-01-29T05:57:47.143Z,69.60
2023-01-29T05:58:22.475Z,69.59
2023-01-29T05:58:55.079Z,69.56
2023-01-29T05:59:27.276Z,69.34
2023-01-29T06:00:02.173Z,69.47
2023-01-29T06:00:44.307Z,69.33
2023-01-29T06:01:18.932Z,69.23
2023-01-29T06:01:53.804Z,69.57
2023-01-29T06:02:25.969Z,69.15
2023-01-29T06:03:01.888Z,69.40
2023-01-29T06:03:34.038Z,69.24
2023-01-29T06:04:06.198Z,69.15
2023-01-29T06:04:40.960Z,69.15
2023-01-29T06:05:13.106Z,69.01
2023-01-29T06:05:45.262Z,69.37
2023-01-29T06:06:20.159Z,68.90
2023-01-29T06:06:52.265Z,69.17
2023-01-29T06:07:24.410Z,69.14
2023-01-29T06:07:59.117Z,69.20
2023-01-29T06:08:31.225Z,68.75
2023-01-29T06:09:06.374Z,69.02
2023-01-29T06:09:40.393Z,68.80
2023-01-29T06:10:12.976Z,69.06
2023-01-29T06:10:47.673Z,68.67
2023-01-29T06:11:20.711Z,68.99
2023-01-29T06:11:52.888Z,68.81
2023-01-29T06:12:29.028Z,68.64
2023-01-29T06:13:04.114Z,68.70
2023-01-29T06:13:36.251Z,68.75
2023-01-29T06:14:11.080Z,68.80
2023-01-29T06:14:43.211Z,68.98
2023-01-29T06:15:15.714Z,68.50
2023-01-29T06:15:47.888Z,68.46
2023-01-29T06:16:22.717Z,68.78
2023-01-29T06:16:54.813Z,68.31
2023-01-29T06:17:26.966Z,68.36
2023-01-29T06:18:01.641Z,68.71
2023-01-29T06:18:33.775Z,68.38
2023-01-29T06:19:05.923Z,68.54
2023-01-29T06:19:40.619Z,68.68
2023-01-29T06:20:13.333Z,68.60
2023-01-29T06:20:45.555Z,68.72
2023-01-29T06:21:20.321Z,68.60
2023-01-29T06:21:52.412Z,68.86
2023-01-29T06:22:27.216Z,68.34
2023-01-29T06:22:59.759Z,68.33
2023-01-29T06:23:32.817Z,68.64
2023-01-29T06:24:08.324Z,68.55
2023-01-29T06:24:40.404Z,68.56
2023-01-29T06:25:12.746Z,68.44
2023-01-29T06:25:47.481Z,68.50
2023-01-29T06:26:19.672Z,68.24
2023-01-29T06:26:52.067Z,68.57
2023-01-29T06:27:26.748Z,68.40
2023-01-29T06:27:59.614Z,68.13
2023-01-29T06:28:34.936Z,68.17
2023-01-29T06:29:09.995Z,68.42
2023-01-29T06:29:42.395Z,68.45
2023-01-29T06:30:15.883Z,68.66
2023-01-29T06:30:48.441Z,68.64
2023-01-29T06:31:37.351Z,68.94
2023-01-29T06:32:10.303Z,68.65
2023-01-29T06:32:45.022Z,68.77
2023-01-29T06:33:17.127Z,68.77
2023-01-29T06:33:49.223Z,68.48
2023-01-29T06:34:23.907Z,68.72
2023-01-29T06:34:56.059Z,68.71
2023-01-29T06:35:28.461Z,68.59
2023-01-29T06:36:04.803Z,68.58
2023-01-29T06:36:37.036Z,68.69
2023-01-29T06:37:09.178Z,68.58
2023-01-29T06:37:43.965Z,68.67
2023-01-29T06:38:16.076Z,68.61
2023-01-29T06:38:48.337Z,68.66
2023-01-29T06:39:23.071Z,68.55
2023-01-29T06:39:55.184Z,68.65
2023-01-29T06:40:29.942Z,68.52
2023-01-29T06:41:09.371Z,68.62
2023-01-29T06:41:41.517Z,68.42
2023-01-29T06:42:16.239Z,68.39
2023-01-29T06:42:48.360Z,68.69
2023-01-29T06:43:20.751Z,68.38
2023-01-29T06:43:58.120Z,68.13
2023-01-29T06:44:30.292Z,67.92
2023-01-29T06:45:02.422Z,68.12
2023-01-29T06:45:37.167Z,67.93
2023-01-29T06:46:09.298Z,68.22
2023-01-29T06:46:44.211Z,67.90
2023-01-29T06:47:16.345Z,68.12
2023-01-29T06:47:48.479Z,67.94
2023-01-29T06:48:23.771Z,68.09
2023-01-29T06:48:58.267Z,67.89
2023-01-29T06:49:30.364Z,67.80
2023-01-29T06:50:05.086Z,68.03
2023-01-29T06:50:37.215Z,67.89
2023-01-29T06:51:10.936Z,67.91
2023-01-29T06:51:45.747Z,67.95
2023-01-29T06:52:17.877Z,67.73
2023-01-29T06:52:50.046Z,68.20
2023-01-29T06:53:25.353Z,68.06
2023-01-29T06:53:57.776Z,67.67
2023-01-29T06:54:30.461Z,67.58
2023-01-29T06:55:05.384Z,67.62
2023-01-29T06:55:37.623Z,67.63
2023-01-29T06:56:10.037Z,67.63
2023-01-29T06:56:44.875Z,67.74
2023-01-29T06:57:17.481Z,67.77
2023-01-29T06:57:49.804Z,67.69
2023-01-29T06:58:24.771Z,67.74
2023-01-29T06:58:59.877Z,67.90
2023-01-29T06:59:32.302Z,68.03
2023-01-29T07:00:09.987Z,67.93
2023-01-29T07:00:42.201Z,67.49
2023-01-29T07:01:34.286Z,67.96
2023-01-29T07:02:10.472Z,67.92
2023-01-29T07:02:42.874Z,67.88
2023-01-29T07:03:15.290Z,67.93
2023-01-29T07:03:52.415Z,67.75
2023-01-29T07:04:24.516Z,67.54
2023-01-29T07:04:56.723Z,67.51
2023-01-29T07:05:32.182Z,67.63
2023-01-29T07:06:05.394Z,67.53
2023-01-29T07:06:37.704Z,67.61
2023-01-29T07:07:15.460Z,67.27
2023-01-29T07:07:47.688Z,67.68
2023-01-29T07:08:22.876Z,67.53
2023-01-29T07:08:55.406Z,67.40
2023-01-29T07:09:27.755Z,67.58
2023-01-29T07:10:02.768Z,67.45
2023-01-29T07:10:34.923Z,67.17
2023-01-29T07:11:08.059Z,67.19
2023-01-29T07:11:45.621Z,67.34
2023-01-29T07:12:17.708Z,67.34
2023-01-29T07:12:50.011Z,67.15
2023-01-29T07:13:24.896Z,67.29
2023-01-29T07:13:59.667Z,67.27
2023-01-29T07:14:31.771Z,67.28
2023-01-29T07:15:07.457Z,67.56
2023-01-29T07:15:39.788Z,67.69
2023-01-29T07:16:14.555Z,67.70
2023-01-29T07:16:46.768Z,68.00
2023-01-29T07:17:18.837Z,67.86
2023-01-29T07:18:00.801Z,67.63
2023-01-29T07:18:33.225Z,67.42
2023-01-29T07:19:05.397Z,67.73
2023-01-29T07:19:40.208Z,67.47
2023-01-29T07:20:12.530Z,67.69
2023-01-29T07:20:44.706Z,67.57
2023-01-29T07:21:19.575Z,67.52
2023-01-29T07:21:51.821Z,67.73
2023-01-29T07:22:23.951Z,67.75
2023-01-29T07:23:00.031Z,67.94
2023-01-29T07:23:32.333Z,67.42
2023-01-29T07:24:07.940Z,67.54
2023-01-29T07:24:40.290Z,67.69
2023-01-29T07:25:12.544Z,67.99
2023-01-29T07:25:49.869Z,68.06
2023-01-29T07:26:22.205Z,67.96
2023-01-29T07:26:54.450Z,67.89
2023-01-29T07:27:30.346Z,68.14
2023-01-29T07:28:02.750Z,68.14
2023-01-29T07:28:38.157Z,68.27
2023-01-29T07:29:15.603Z,68.28
2023-01-29T07:29:47.811Z,68.45
2023-01-29T07:30:20.252Z,68.22
2023-01-29T07:30:59.102Z,68.06
2023-01-29T07:31:31.515Z,68.22
2023-01-29T07:32:03.925Z,68.32
2023-01-29T07:32:38.891Z,67.96
2023-01-29T07:33:11.481Z,67.93
2023-01-29T07:33:46.980Z,68.28
2023-01-29T07:34:19.267Z,68.18
2023-01-29T07:34:51.511Z,67.92
2023-01-29T07:35:26.342Z,67.92
2023-01-29T07:35:58.767Z,67.81
2023-01-29T07:36:31.245Z,68.06
2023-01-29T07:37:06.358Z,68.16
2023-01-29T07:37:38.459Z,68.18
2023-01-29T07:38:11.619Z,68.23
2023-01-29T07:38:46.575Z,68.25
2023-01-29T07:39:18.709Z,68.16
2023-01-29T07:39:50.894Z,68.59
2023-01-29T07:40:23.013Z,68.27
2023-01-29T07:40:57.926Z,68.39
2023-01-29T07:41:30.106Z,68.66
2023-01-29T07:42:05.302Z,68.83
2023-01-29T07:42:42.338Z,68.55
2023-01-29T07:43:14.985Z,68.90
2023-01-29T07:43:47.322Z,68.45
2023-01-29T07:44:24.619Z,68.33
2023-01-29T07:44:56.926Z,68.40
2023-01-29T07:45:29.617Z,68.32
2023-01-29T07:46:05.866Z,68.36
2023-01-29T07:46:38.302Z,68.11
2023-01-29T07:47:10.467Z,67.94
2023-01-29T07:47:45.211Z,68.27
2023-01-29T07:48:17.335Z,68.29
2023-01-29T07:48:49.515Z,69.17
2023-01-29T07:49:24.257Z,68.96
2023-01-29T07:49:56.356Z,69.43
2023-01-29T07:50:28.615Z,69.38
2023-01-29T07:51:03.510Z,68.95
2023-01-29T07:51:35.671Z,69.14
2023-01-29T07:52:07.832Z,69.37
2023-01-29T07:52:42.518Z,69.26
2023-01-29T07:53:15.619Z,69.66
2023-01-29T07:53:47.947Z,69.08
2023-01-29T07:54:22.835Z,69.54
2023-01-29T07:54:54.966Z,69.41
2023-01-29T07:55:27.607Z,69.78
2023-01-29T07:56:02.310Z,69.23
2023-01-29T07:56:34.475Z,69.09
2023-01-29T07:57:06.727Z,69.12
2023-01-29T07:57:41.423Z,69.10
2023-01-29T07:58:13.578Z,69.44
2023-01-29T07:58:45.691Z,69.52
2023-01-29T07:59:20.600Z,69.72
2023-01-29T07:59:55.357Z,69.60
2023-01-29T08:00:30.619Z,69.83
2023-01-29T08:01:06.656Z,69.98
2023-01-29T08:01:41.396Z,69.61
2023-01-29T08:02:13.846Z,69.60
2023-01-29T08:02:45.949Z,69.57
2023-01-29T08:03:22.835Z,69.49
2023-01-29T08:03:54.936Z,69.33
2023-01-29T08:04:27.130Z,69.62
2023-01-29T08:05:02.003Z,69.47
2023-01-29T08:05:34.584Z,69.54
2023-01-29T08:06:07.309Z,69.35
2023-01-29T08:06:42.294Z,69.49
2023-01-29T08:07:14.564Z,69.34
2023-01-29T08:07:51.525Z,69.39
2023-01-29T08:08:35.923Z,68.94
2023-01-29T08:09:08.965Z,69.35
2023-01-29T08:09:41.116Z,69.05
2023-01-29T08:10:16.126Z,69.31
2023-01-29T08:10:48.486Z,69.22
2023-01-29T08:11:20.614Z,68.94
2023-01-29T08:11:55.370Z,69.18
2023-01-29T08:12:27.571Z,68.99
2023-01-29T08:13:03.803Z,68.76
2023-01-29T08:13:36.350Z,69.19
2023-01-29T08:14:09.454Z,69.52
2023-01-29T08:14:45.870Z,69.61
2023-01-29T08:15:20.691Z,69.46
2023-01-29T08:15:52.824Z,70.24
2023-01-29T08:16:27.794Z,70.38
2023-01-29T08:17:00.052Z,70.31
2023-01-29T08:17:32.232Z,70.70
2023-01-29T08:18:07.597Z,70.24
2023-01-29T08:18:42.516Z,70.35
2023-01-29T08:19:14.858Z,70.35
2023-01-29T08:19:49.634Z,70.37
2023-01-29T08:20:22.613Z,70.00
2023-01-29T08:21:02.566Z,70.00
2023-01-29T08:21:34.691Z,70.66
2023-01-29T08:22:07.186Z,70.11
2023-01-29T08:22:39.290Z,70.26
2023-01-29T08:23:16.693Z,70.14
2023-01-29T08:23:48.841Z,70.38
2023-01-29T08:24:28.221Z,70.33
2023-01-29T08:25:09.278Z,70.42
2023-01-29T08:25:44.331Z,70.69
2023-01-29T08:26:16.549Z,70.83
2023-01-29T08:26:48.710Z,70.44
2023-01-29T08:27:23.553Z,70.37
2023-01-29T08:27:56.955Z,70.11
2023-01-29T08:28:29.197Z,70.21
2023-01-29T08:29:04.085Z,70.16
2023-01-29T08:29:36.326Z,70.06
2023-01-29T08:30:11.065Z,69.71
2023-01-29T08:30:48.498Z,70.01
2023-01-29T08:31:20.836Z,69.85
2023-01-29T08:31:53.163Z,69.89
2023-01-29T08:32:28.090Z,69.95
2023-01-29T08:33:00.921Z,69.88
2023-01-29T08:33:38.949Z,69.82
2023-01-29T08:34:14.072Z,69.72
2023-01-29T08:34:46.263Z,70.26
2023-01-29T08:35:21.269Z,70.12
2023-01-29T08:35:53.836Z,69.87
2023-01-29T08:36:28.617Z,70.21
2023-01-29T08:37:00.885Z,70.23
2023-01-29T08:37:33.146Z,69.90
2023-01-29T08:38:08.357Z,70.10
2023-01-29T08:38:40.693Z,69.93
2023-01-29T08:39:12.955Z,69.72
2023-01-29T08:39:47.743Z,69.45
2023-01-29T08:40:20.248Z,69.44
2023-01-29T08:40:55.085Z,69.27
2023-01-29T08:41:27.166Z,69.81
2023-01-29T08:41:59.455Z,69.34
2023-01-29T08:42:34.589Z,69.69
2023-01-29T08:43:09.526Z,69.23
2023-01-29T08:43:44.534Z,69.22
2023-01-29T08:44:16.723Z,69.14
2023-01-29T08:44:51.527Z,69.09
2023-01-29T08:45:23.615Z,68.96
2023-01-29T08:45:58.551Z,68.92
2023-01-29T08:46:33.652Z,69.19
2023-01-29T08:47:05.895Z,68.98
2023-01-29T08:47:40.806Z,69.08
2023-01-29T08:48:13.096Z,68.98
2023-01-29T08:48:45.260Z,69.21
2023-01-29T08:49:19.966Z,69.26
2023-01-29T08:49:52.213Z,69.30
2023-01-29T08:50:27.260Z,68.82
2023-01-29T08:51:00.511Z,69.09
2023-01-29T08:51:35.286Z,69.08
2023-01-29T08:52:07.408Z,68.99
2023-01-29T08:52:39.664Z,68.71
2023-01-29T08:53:14.543Z,68.75
2023-01-29T08:53:50.667Z,69.05
2023-01-29T08:54:26.169Z,69.17
2023-01-29T08:54:58.393Z,68.90
2023-01-29T08:55:30.780Z,68.71
2023-01-29T08:56:05.593Z,68.52
2023-01-29T08:56:38.278Z,68.94
2023-01-29T08:57:13.300Z,68.97
2023-01-29T08:57:45.507Z,68.66
2023-01-29T08:58:17.919Z,68.54
2023-01-29T08:58:52.879Z,69.00
2023-01-29T08:59:24.977Z,68.66
2023-01-29T08:59:57.120Z,68.63
2023-01-29T09:00:31.834Z,69.16
2023-01-29T09:01:11.206Z,69.02
2023-01-29T09:01:46.010Z,68.57
2023-01-29T09:02:18.183Z,68.50
2023-01-29T09:02:50.389Z,68.90
2023-01-29T09:03:25.653Z,68.71
2023-01-29T09:03:57.956Z,68.88
2023-01-29T09:04:30.232Z,69.30
2023-01-29T09:05:05.464Z,69.37
2023-01-29T09:05:39.278Z,69.27
2023-01-29T09:06:12.940Z,69.35
2023-01-29T09:06:47.635Z,69.15
2023-01-29T09:07:21.866Z,69.45
2023-01-29T09:07:54.669Z,69.43
2023-01-29T09:08:29.564Z,69.70
2023-01-29T09:09:01.906Z,69.32
2023-01-29T09:09:34.052Z,69.52
2023-01-29T09:10:10.166Z,69.10
2023-01-29T09:10:42.455Z,69.57
2023-01-29T09:11:17.136Z,69.65
2023-01-29T09:11:49.256Z,69.54
2023-01-29T09:12:21.354Z,69.48
2023-01-29T09:12:56.209Z,69.14
2023-01-29T09:13:28.335Z,69.23
2023-01-29T09:14:03.046Z,68.96
2023-01-29T09:14:35.647Z,68.82
2023-01-29T09:15:09.276Z,69.41
2023-01-29T09:15:44.142Z,69.50
2023-01-29T09:16:18.943Z,69.42
2023-01-29T09:16:53.746Z,69.39
2023-01-29T09:17:25.947Z,68.92
2023-01-29T09:17:58.200Z,69.33
2023-01-29T09:18:33.847Z,69.09
2023-01-29T09:19:05.970Z,68.74
2023-01-29T09:19:40.665Z,69.07
2023-01-29T09:20:13.014Z,68.79
2023-01-29T09:20:45.253Z,68.73
2023-01-29T09:21:20.011Z,68.89
2023-01-29T09:21:52.116Z,69.00
2023-01-29T09:22:24.215Z,69.27
2023-01-29T09:22:59.268Z,69.04
2023-01-29T09:23:31.551Z,68.91
2023-01-29T09:24:06.777Z,69.08
2023-01-29T09:24:38.936Z,68.72
2023-01-29T09:25:11.201Z,68.72
2023-01-29T09:25:46.880Z,68.76
2023-01-29T09:26:19.019Z,68.41
2023-01-29T09:26:53.873Z,68.44
2023-01-29T09:27:25.975Z,69.02
2023-01-29T09:27:58.086Z,68.68
2023-01-29T09:28:33.178Z,68.60
2023-01-29T09:29:05.703Z,68.80
2023-01-29T09:29:40.497Z,68.97
2023-01-29T09:30:13.423Z,68.80
2023-01-29T09:30:46.246Z,68.63
2023-01-29T09:31:23.767Z,68.45
2023-01-29T09:31:56.041Z,68.84
2023-01-29T09:32:52.768Z,68.79
2023-01-29T09:33:26.256Z,68.87
2023-01-29T09:33:58.403Z,69.09
2023-01-29T09:34:30.572Z,68.70
2023-01-29T09:35:05.413Z,68.27
2023-01-29T09:35:37.526Z,68.31
2023-01-29T09:36:12.663Z,68.50
2023-01-29T09:36:45.038Z,68.15
2023-01-29T09:37:23.445Z,68.49
2023-01-29T09:37:55.786Z,68.41
2023-01-29T09:38:30.709Z,68.61
2023-01-29T09:39:02.855Z,68.13
2023-01-29T09:39:37.912Z,68.32
2023-01-29T09:40:18.551Z,68.14
2023-01-29T09:41:02.582Z,68.15
2023-01-29T09:41:49.506Z,68.18
2023-01-29T09:42:30.320Z,68.59
2023-01-29T09:43:06.929Z,68.05
2023-01-29T09:43:48.712Z,68.05
2023-01-29T09:44:28.778Z,68.12
2023-01-29T09:45:06.212Z,68.10
2023-01-29T09:45:44.979Z,68.24
2023-01-29T09:46:28.912Z,68.01
2023-01-29T09:47:07.847Z,68.03
2023-01-29T09:47:39.942Z,67.95
2023-01-29T09:48:15.785Z,68.20
2023-01-29T09:48:50.218Z,68.02
2023-01-29T09:49:29.157Z,67.86
2023-01-29T09:50:05.892Z,68.12
2023-01-29T09:50:41.586Z,68.03
2023-01-29T09:51:24.408Z,68.03
2023-01-29T09:52:02.172Z,68.01
2023-01-29T09:52:40.673Z,68.14
2023-01-29T09:53:18.528Z,68.14
2023-01-29T09:54:01.178Z,67.59
2023-01-29T09:54:41.243Z,68.02
2023-01-29T09:55:25.262Z,67.41
2023-01-29T09:56:03.111Z,67.75
2023-01-29T09:56:38.357Z,67.92
2023-01-29T09:57:17.953Z,67.78
2023-01-29T09:57:57.631Z,67.82
2023-01-29T09:58:34.320Z,67.93
2023-01-29T09:59:09.177Z,68.07
2023-01-29T09:59:41.524Z,67.75
2023-01-29T13:08:10.325Z,67.69
2023-01-29T13:08:46.646Z,67.32
2023-01-29T13:09:24.503Z,67.72
2023-01-29T13:10:07.161Z,67.97
2023-01-29T13:10:43.723Z,67.81
2023-01-29T13:11:24.661Z,67.76
2023-01-29T13:12:03.446Z,68.38
2023-01-29T13:12:37.530Z,68.30
2023-01-29T13:13:18.984Z,67.88
2023-01-29T13:13:55.499Z,67.93
2023-01-29T13:14:40.118Z,67.84
2023-01-29T13:15:22.339Z,67.40
2023-01-29T13:16:00.692Z,68.02
2023-01-29T13:16:38.563Z,67.50
2023-01-29T13:17:15.771Z,67.63
2023-01-29T13:17:54.675Z,67.28
2023-01-29T13:18:40.617Z,67.42
2023-01-29T13:19:24.956Z,66.93
2023-01-29T13:20:00.920Z,66.86
2023-01-29T13:20:38.120Z,66.92
2023-01-29T13:21:16.133Z,66.51
2023-01-29T13:21:51.579Z,66.27
2023-01-29T13:22:26.242Z,66.95
2023-01-29T13:23:08.867Z,66.61
2023-01-29T13:23:44.951Z,66.56
2023-01-29T13:24:23.000Z,66.38
2023-01-29T13:25:04.608Z,66.09
2023-01-29T13:25:40.857Z,66.17
2023-01-29T13:26:14.141Z,66.30
2023-01-29T13:26:47.448Z,66.00
2023-01-29T13:27:27.904Z,65.95
2023-01-29T13:28:00.883Z,65.96
2023-01-29T13:28:35.720Z,65.97
2023-01-29T13:29:20.550Z,66.02
2023-01-29T13:29:56.076Z,65.98
2023-01-29T13:30:30.605Z,66.06
2023-01-29T13:31:21.295Z,65.53
2023-01-29T13:31:54.287Z,65.55
2023-01-29T13:32:30.747Z,65.93
2023-01-29T13:33:09.915Z,65.71
2023-01-29T13:33:54.315Z,65.25
2023-01-29T13:34:29.317Z,65.36
2023-01-29T13:35:07.651Z,65.22
2023-01-29T13:35:42.264Z,65.29
2023-01-29T13:36:19.711Z,65.49
2023-01-29T13:36:57.362Z,64.84
2023-01-29T13:37:32.664Z,64.99
2023-01-29T13:38:26.705Z,64.97
2023-01-29T13:39:03.915Z,64.67
2023-01-29T13:39:44.682Z,65.01
2023-01-29T13:40:24.372Z,65.24
2023-01-29T13:41:03.981Z,64.79
2023-01-29T13:41:39.557Z,64.62
2023-01-29T13:42:21.574Z,64.47
2023-01-29T13:42:55.204Z,64.70
2023-01-29T13:43:31.480Z,64.56
2023-01-29T13:44:09.471Z,64.58
2023-01-29T13:44:41.763Z,64.42
2023-01-29T13:45:24.021Z,64.63
2023-01-29T13:45:56.393Z,64.69
2023-01-29T13:46:30.051Z,64.73
2023-01-29T13:47:06.646Z,64.53